createdAt,value
2022-08-17T00:01:52.317Z,100805.13
2022-08-17T00:04:24.265Z,100813.09
2022-08-17T00:06:54.573Z,100810.19
2022-08-17T00:09:23.453Z,100813.59
2022-08-17T00:12:35.081Z,100816.31
2022-08-17T00:14:46.799Z,100821.56
2022-08-17T00:17:15.800Z,100810.84
2022-08-17T00:19:44.797Z,100808.16
2022-08-17T00:22:35.299Z,100822.03
2022-08-17T00:25:07.442Z,100820.19
2022-08-17T00:27:37.414Z,100826.94
2022-08-17T00:30:09.851Z,100834.56
2022-08-17T00:33:12.019Z,100829.81
2022-08-17T00:35:31.829Z,100825.53
2022-08-17T00:38:04.497Z,100823.38
2022-08-17T00:40:44.229Z,100824.56
2022-08-17T00:43:21.735Z,100824.56
2022-08-17T00:45:51.581Z,100826.75
2022-08-17T00:48:29.007Z,100825.69
2022-08-17T00:51:08.698Z,100824.00
2022-08-17T00:53:45.591Z,100823.91
2022-08-17T00:56:22.270Z,100824.56
2022-08-17T00:58:53.235Z,100824.38
2022-08-17T01:01:23.500Z,100834.88
2022-08-17T01:05:42.345Z,100834.44
2022-08-17T01:08:15.462Z,100834.25
2022-08-17T01:10:59.779Z,100836.59
2022-08-17T01:13:40.812Z,100836.81
2022-08-17T01:16:19.113Z,100838.50
2022-08-17T01:18:52.241Z,100845.28
2022-08-17T01:21:31.949Z,100838.50
2022-08-17T01:24:02.627Z,100842.38
2022-08-17T01:26:34.538Z,100849.13
2022-08-17T01:29:06.170Z,100852.34
2022-08-17T01:31:43.331Z,100847.78
2022-08-17T01:34:17.409Z,100855.22
2022-08-17T01:36:51.031Z,100858.28
2022-08-17T01:39:31.587Z,100850.41
2022-08-17T01:42:10.546Z,100860.63
2022-08-17T01:44:43.013Z,100865.50
2022-08-17T01:47:12.139Z,100858.69
2022-08-17T01:49:41.535Z,100859.06
2022-08-17T01:52:13.334Z,100859.06
2022-08-17T01:54:48.499Z,100852.97
2022-08-17T01:57:17.909Z,100857.53
2022-08-17T01:59:48.901Z,100857.69
2022-08-17T02:02:31.350Z,100866.97
2022-08-17T02:05:01.247Z,100871.88
2022-08-17T02:07:30.636Z,100869.13
2022-08-17T02:10:01.885Z,100870.75
2022-08-17T02:12:39.353Z,100866.16
2022-08-17T02:15:17.283Z,100873.44
2022-08-17T02:17:47.186Z,100868.69
2022-08-17T02:20:41.262Z,100875.31
2022-08-17T02:23:17.052Z,100869.41
2022-08-17T02:25:50.025Z,100874.97
2022-08-17T02:28:20.074Z,100873.03
2022-08-17T02:31:01.561Z,100875.38
2022-08-17T02:33:43.266Z,100877.00
2022-08-17T02:36:14.710Z,100880.06
2022-08-17T02:38:45.716Z,100877.50
2022-08-17T02:41:16.158Z,100869.69
2022-08-17T02:43:45.585Z,100871.19
2022-08-17T02:46:14.503Z,100872.19
2022-08-17T02:48:43.864Z,100870.78
2022-08-17T02:51:12.759Z,100872.97
2022-08-17T02:53:44.367Z,100878.84
2022-08-17T02:56:13.533Z,100871.31
2022-08-17T02:58:44.322Z,100862.97
2022-08-17T03:01:14.001Z,100859.19
2022-08-17T03:05:38.660Z,100863.97
2022-08-17T03:08:11.669Z,100870.53
2022-08-17T03:10:43.039Z,100863.81
2022-08-17T03:13:14.610Z,100868.44
2022-08-17T03:15:47.620Z,100871.53
2022-08-17T03:18:25.272Z,100869.84
2022-08-17T03:21:00.107Z,100870.72
2022-08-17T03:23:30.291Z,100872.38
2022-08-17T03:26:03.193Z,100866.81
2022-08-17T03:28:32.668Z,100863.75
2022-08-17T03:31:01.675Z,100869.91
2022-08-17T03:33:31.513Z,100869.53
2022-08-17T03:36:01.727Z,100866.97
2022-08-17T03:38:39.193Z,100866.59
2022-08-17T03:41:09.135Z,100874.00
2022-08-17T03:43:38.662Z,100862.94
2022-08-17T03:46:27.940Z,100867.09
2022-08-17T03:49:18.479Z,100864.16
2022-08-17T03:52:06.747Z,100865.00
2022-08-17T03:54:53.401Z,100868.97
2022-08-17T03:57:22.827Z,100869.53
2022-08-17T03:59:52.303Z,100868.66
2022-08-17T04:02:26.496Z,100871.22
2022-08-17T04:04:55.988Z,100868.91
2022-08-17T04:07:30.672Z,100876.41
2022-08-17T04:09:59.993Z,100874.84
2022-08-17T04:12:31.476Z,100883.97
2022-08-17T04:15:00.486Z,100885.69
2022-08-17T04:17:31.211Z,100886.53
2022-08-17T04:20:00.111Z,100882.69
2022-08-17T04:22:34.457Z,100885.91
2022-08-17T04:25:17.278Z,100889.34
2022-08-17T04:27:46.104Z,100892.75
2022-08-17T04:30:15.727Z,100889.72
2022-08-17T04:33:03.924Z,100888.56
2022-08-17T04:35:41.586Z,100892.13
2022-08-17T04:38:18.370Z,100890.94
2022-08-17T04:41:06.703Z,100898.78
2022-08-17T04:43:43.027Z,100896.97
2022-08-17T04:46:17.491Z,100902.53
2022-08-17T04:48:52.658Z,100905.84
2022-08-17T04:51:28.267Z,100907.16
2022-08-17T04:54:05.455Z,100920.44
2022-08-17T04:56:37.805Z,100930.16
2022-08-17T04:59:14.503Z,100924.66
2022-08-17T05:01:46.946Z,100930.81
2022-08-17T05:05:38.039Z,100933.19
2022-08-17T05:08:09.366Z,100934.97
2022-08-17T05:10:45.169Z,100941.34
2022-08-17T05:13:18.327Z,100945.47
2022-08-17T05:15:49.671Z,100951.16
2022-08-17T05:18:21.052Z,100945.97
2022-08-17T05:20:55.998Z,100953.09
2022-08-17T05:23:33.680Z,100959.06
2022-08-17T05:26:25.681Z,100963.31
2022-08-17T05:29:00.618Z,100969.47
2022-08-17T05:31:33.747Z,100966.47
2022-08-17T05:34:03.370Z,100968.19
2022-08-17T05:36:41.808Z,100968.53
2022-08-17T05:39:17.093Z,100967.66
2022-08-17T05:41:49.073Z,100967.31
2022-08-17T05:44:18.673Z,100956.22
2022-08-17T05:46:54.510Z,100959.75
2022-08-17T05:49:28.921Z,100951.56
2022-08-17T05:52:21.738Z,100951.53
2022-08-17T05:55:12.763Z,100947.44
2022-08-17T05:58:00.257Z,100946.84
2022-08-17T06:00:42.978Z,100938.75
2022-08-17T06:03:44.590Z,100923.78
2022-08-17T06:06:34.030Z,100908.44
2022-08-17T06:09:35.026Z,100898.06
2022-08-17T06:12:32.244Z,100901.16
2022-08-17T06:15:28.873Z,100906.97
2022-08-17T06:18:03.637Z,100918.28
2022-08-17T06:20:45.042Z,100907.06
2022-08-17T06:23:27.888Z,100921.47
2022-08-17T06:26:05.430Z,100915.66
2022-08-17T06:28:44.977Z,100915.50
2022-08-17T06:31:24.106Z,100917.53
2022-08-17T06:33:59.799Z,100909.38
2022-08-17T06:36:49.983Z,100919.50
2022-08-17T06:39:41.186Z,100916.91
2022-08-17T06:43:02.268Z,100919.47
2022-08-17T06:45:26.313Z,100914.25
2022-08-17T06:48:00.988Z,100913.47
2022-08-17T06:50:38.373Z,100914.91
2022-08-17T06:53:28.216Z,100914.22
2022-08-17T06:56:06.479Z,100920.41
2022-08-17T06:58:46.588Z,100911.53
2022-08-17T07:01:25.301Z,100916.75
2022-08-17T07:05:49.319Z,100916.50
2022-08-17T07:08:35.326Z,100926.56
2022-08-17T07:11:11.393Z,100916.34
2022-08-17T07:13:53.650Z,100922.84
2022-08-17T07:16:40.119Z,100926.28
2022-08-17T07:19:11.323Z,100924.66
2022-08-17T07:21:58.402Z,100916.50
2022-08-17T07:24:47.377Z,100931.31
2022-08-17T07:27:21.865Z,100922.41
2022-08-17T07:29:57.857Z,100922.97
2022-08-17T07:32:35.656Z,100927.72
2022-08-17T07:35:18.324Z,100923.19
2022-08-17T07:38:24.691Z,100926.41
2022-08-17T07:41:12.344Z,100934.13
2022-08-17T07:43:53.040Z,100930.25
2022-08-17T07:46:51.409Z,100928.22
2022-08-17T07:49:35.061Z,100921.16
2022-08-17T07:52:47.660Z,100926.81
2022-08-17T07:55:23.421Z,100931.31
2022-08-17T07:57:59.153Z,100935.25
2022-08-17T08:00:37.798Z,100932.97
2022-08-17T08:03:28.528Z,100935.13
2022-08-17T08:06:05.292Z,100931.72
2022-08-17T08:08:42.727Z,100927.69
2022-08-17T08:11:29.685Z,100930.31
2022-08-17T08:14:28.618Z,100929.22
2022-08-17T08:17:05.900Z,100931.78
2022-08-17T08:19:42.192Z,100925.19
2022-08-17T08:22:26.417Z,100935.56
2022-08-17T08:25:28.711Z,100933.06
2022-08-17T08:28:30.467Z,100930.91
2022-08-17T08:31:20.817Z,100922.50
2022-08-17T08:34:58.707Z,100931.81
2022-08-17T08:37:22.693Z,100934.91
2022-08-17T08:40:09.269Z,100936.03
2022-08-17T08:42:51.387Z,100942.38
2022-08-17T08:45:34.438Z,100940.28
2022-08-17T08:48:53.711Z,100930.00
2022-08-17T08:51:41.626Z,100935.88
2022-08-17T08:54:38.901Z,100938.13
2022-08-17T08:57:28.022Z,100936.09
2022-08-17T09:00:20.358Z,100943.63
2022-08-17T09:05:58.872Z,100943.88
2022-08-17T09:08:44.969Z,100934.31
2022-08-17T09:11:23.918Z,100936.91
2022-08-17T09:14:21.253Z,100930.56
2022-08-17T09:17:18.764Z,100943.22
2022-08-17T09:20:00.882Z,100942.81
2022-08-17T09:22:46.936Z,100945.75
2022-08-17T09:25:26.160Z,100943.00
2022-08-17T09:28:04.611Z,100939.59
2022-08-17T09:30:58.834Z,100936.78
2022-08-17T09:33:30.052Z,100941.00
2022-08-17T09:36:13.337Z,100948.00
2022-08-17T09:38:57.814Z,100946.00
2022-08-17T09:41:39.123Z,100948.97
2022-08-17T09:44:40.051Z,100938.53
2022-08-17T09:47:32.154Z,100947.13
2022-08-17T09:50:15.964Z,100942.31
2022-08-17T09:52:46.632Z,100939.59
2022-08-17T09:55:18.685Z,100950.19
2022-08-17T09:58:05.653Z,100944.47
2022-08-17T10:00:51.046Z,100945.53
2022-08-17T10:03:42.340Z,100940.22
2022-08-17T10:06:22.099Z,100938.97
2022-08-17T10:09:09.177Z,100941.31
2022-08-17T10:12:17.138Z,100943.47
2022-08-17T10:15:08.109Z,100933.13
2022-08-17T10:17:56.547Z,100941.63
2022-08-17T10:20:34.987Z,100936.50
2022-08-17T10:23:38.010Z,100940.00
2022-08-17T10:26:18.449Z,100940.41
2022-08-17T10:29:02.509Z,100922.84
2022-08-17T10:31:47.532Z,100945.72
2022-08-17T10:34:52.748Z,100946.41
2022-08-17T10:38:14.879Z,100938.00
2022-08-17T10:40:57.481Z,100926.00
2022-08-17T10:43:57.816Z,100919.25
2022-08-17T10:46:56.607Z,100923.75
2022-08-17T10:49:34.393Z,100926.69
2022-08-17T10:52:25.053Z,100927.28
2022-08-17T10:55:15.639Z,100928.66
2022-08-17T10:57:47.872Z,100922.78
2022-08-17T11:00:59.762Z,100930.28
2022-08-17T11:06:17.060Z,100917.09
2022-08-17T11:09:11.847Z,100925.75
2022-08-17T11:12:10.355Z,100931.34
2022-08-17T11:15:00.610Z,100930.22
2022-08-17T11:18:11.631Z,100927.56
2022-08-17T11:21:32.290Z,100934.47
2022-08-17T11:24:20.769Z,100939.66
2022-08-17T11:27:12.110Z,100932.13
2022-08-17T11:30:00.956Z,100933.41
2022-08-17T11:32:47.134Z,100926.56
2022-08-17T11:35:40.584Z,100938.84
2022-08-17T11:38:28.388Z,100925.16
2022-08-17T11:41:21.113Z,100931.91
2022-08-17T11:44:20.024Z,100928.00
2022-08-17T11:47:35.562Z,100923.72
2022-08-17T11:50:51.845Z,100924.81
2022-08-17T11:54:31.561Z,100924.16
2022-08-17T11:56:55.725Z,100924.06
2022-08-17T11:59:59.110Z,100919.44
2022-08-17T12:02:47.379Z,100914.03
2022-08-17T12:05:35.651Z,100903.44
2022-08-17T12:08:22.041Z,100898.13
2022-08-17T12:11:01.343Z,100902.28
2022-08-17T12:13:39.813Z,100905.66
2022-08-17T12:16:10.972Z,100903.31
2022-08-17T12:18:42.442Z,100902.59
2022-08-17T12:21:40.078Z,100895.00
2022-08-17T12:24:36.939Z,100898.09
2022-08-17T12:27:13.219Z,100900.47
2022-08-17T12:29:46.789Z,100907.97
2022-08-17T12:32:21.482Z,100912.66
2022-08-17T12:34:59.369Z,100905.38
2022-08-17T12:37:32.772Z,100902.16
2022-08-17T12:40:07.679Z,100900.34
2022-08-17T12:42:44.085Z,100903.44
2022-08-17T12:45:26.846Z,100902.31
2022-08-17T12:48:08.017Z,100903.69
2022-08-17T12:50:39.618Z,100895.06
2022-08-17T12:53:16.114Z,100899.16
2022-08-17T12:55:45.991Z,100896.94
2022-08-17T12:58:24.719Z,100902.78
2022-08-17T13:01:08.972Z,100894.69
2022-08-17T13:05:42.437Z,100891.13
2022-08-17T13:08:20.294Z,100890.84
2022-08-17T13:10:58.537Z,100906.69
2022-08-17T13:13:32.032Z,100895.09
2022-08-17T13:16:04.983Z,100896.97
2022-08-17T13:18:42.522Z,100902.44
2022-08-17T13:21:28.504Z,100892.03
2022-08-17T13:24:02.230Z,100904.94
2022-08-17T13:26:37.451Z,100909.03
2022-08-17T13:29:10.161Z,100905.13
2022-08-17T13:31:52.845Z,100899.13
2022-08-17T13:35:12.959Z,100891.13
2022-08-17T13:37:40.695Z,100872.63
2022-08-17T13:40:37.413Z,100888.94
2022-08-17T13:43:06.971Z,100885.88
2022-08-17T13:45:52.752Z,100885.22
2022-08-17T13:48:28.779Z,100889.41
2022-08-17T13:51:34.004Z,100893.06
2022-08-17T13:54:20.488Z,100893.06
2022-08-17T13:57:01.420Z,100886.06
2022-08-17T13:59:55.052Z,100893.06
2022-08-17T14:02:28.432Z,100887.84
2022-08-17T14:05:00.818Z,100876.97
2022-08-17T14:07:35.436Z,100873.34
2022-08-17T14:10:14.196Z,100868.78
2022-08-17T14:12:46.782Z,100871.78
2022-08-17T14:15:20.685Z,100871.03
2022-08-17T14:17:51.288Z,100870.72
2022-08-17T14:20:24.826Z,100879.50
2022-08-17T14:22:57.338Z,100875.19
2022-08-17T14:25:30.614Z,100876.88
2022-08-17T14:28:01.865Z,100873.28
2022-08-17T14:30:31.253Z,100869.81
2022-08-17T14:33:02.422Z,100864.75
2022-08-17T14:35:31.815Z,100860.25
2022-08-17T14:38:04.423Z,100870.81
2022-08-17T14:40:37.900Z,100878.28
2022-08-17T14:43:06.954Z,100870.00
2022-08-17T14:45:40.207Z,100867.91
2022-08-17T14:48:09.605Z,100869.22
2022-08-17T14:50:42.539Z,100861.38
2022-08-17T14:53:16.006Z,100865.63
2022-08-17T14:55:47.366Z,100866.94
2022-08-17T14:58:18.212Z,100866.28
2022-08-17T15:00:50.010Z,100864.88
2022-08-17T15:05:37.922Z,100872.91
2022-08-17T15:08:11.076Z,100866.09
2022-08-17T15:10:40.756Z,100868.88
2022-08-17T15:13:20.926Z,100860.19
2022-08-17T15:15:50.870Z,100857.50
2022-08-17T15:18:20.846Z,100863.06
2022-08-17T15:20:51.645Z,100864.81
2022-08-17T15:23:23.820Z,100866.94
2022-08-17T15:25:55.903Z,100869.72
2022-08-17T15:28:28.132Z,100868.31
2022-08-17T15:30:57.254Z,100864.16
2022-08-17T15:33:30.603Z,100870.00
2022-08-17T15:36:05.146Z,100865.84
2022-08-17T15:38:39.407Z,100865.66
2022-08-17T15:41:12.678Z,100867.44
2022-08-17T15:43:42.232Z,100870.69
2022-08-17T15:46:15.506Z,100864.69
2022-08-17T15:48:47.904Z,100865.81
2022-08-17T15:51:21.921Z,100866.63
2022-08-17T15:53:56.275Z,100867.09
2022-08-17T15:56:26.837Z,100862.19
2022-08-17T15:58:56.576Z,100845.69
2022-08-17T16:03:01.337Z,100846.97
2022-08-17T16:04:29.838Z,100857.66
2022-08-17T16:07:01.471Z,100854.63
2022-08-17T16:09:30.902Z,100850.06
2022-08-17T16:12:09.528Z,100850.38
2022-08-17T16:14:40.570Z,100847.06
2022-08-17T16:17:39.113Z,100837.59
2022-08-17T16:19:59.237Z,100828.97
2022-08-17T16:22:37.612Z,100832.94
2022-08-17T16:25:11.972Z,100824.03
2022-08-17T16:27:41.929Z,100826.03
2022-08-17T16:30:17.747Z,100824.34
2022-08-17T16:32:48.575Z,100825.31
2022-08-17T16:35:18.606Z,100829.75
2022-08-17T16:37:49.899Z,100831.25
2022-08-17T16:40:20.226Z,100832.50
2022-08-17T16:42:51.524Z,100836.72
2022-08-17T16:45:24.637Z,100828.03
2022-08-17T16:47:55.289Z,100830.63
2022-08-17T16:50:26.294Z,100829.59
2022-08-17T16:53:06.947Z,100833.00
2022-08-17T16:55:36.813Z,100830.44
2022-08-17T16:58:09.212Z,100829.28
2022-08-17T17:00:39.736Z,100834.72
2022-08-17T17:06:00.110Z,100828.38
2022-08-17T17:08:40.724Z,100829.00
2022-08-17T17:11:23.507Z,100830.44
2022-08-17T17:14:06.278Z,100825.94
2022-08-17T17:16:52.014Z,100826.44
2022-08-17T17:19:35.081Z,100834.25
2022-08-17T17:22:18.091Z,100831.31
2022-08-17T17:25:08.392Z,100833.25
2022-08-17T17:27:53.378Z,100843.78
2022-08-17T17:30:28.267Z,100834.16
2022-08-17T17:33:05.692Z,100830.84
2022-08-17T17:35:44.642Z,100837.34
2022-08-17T17:38:24.914Z,100837.34
2022-08-17T17:41:09.031Z,100835.66
2022-08-17T17:43:39.976Z,100833.16
2022-08-17T17:46:27.700Z,100835.06
2022-08-17T17:48:58.657Z,100832.81
2022-08-17T17:52:05.247Z,100838.13
2022-08-17T17:54:55.087Z,100833.53
2022-08-17T17:57:41.121Z,100833.19
2022-08-17T18:00:20.256Z,100838.81
2022-08-17T18:03:31.392Z,100837.88
2022-08-17T18:06:28.489Z,100831.19
2022-08-17T18:09:21.422Z,100837.63
2022-08-17T18:12:22.639Z,100846.63
2022-08-17T18:15:23.466Z,100840.31
2022-08-17T18:18:26.320Z,100842.25
2022-08-17T18:21:08.002Z,100841.66
2022-08-17T18:23:43.469Z,100845.06
2022-08-17T18:26:13.235Z,100851.03
2022-08-17T18:28:45.388Z,100850.88
2022-08-17T18:31:22.807Z,100845.63
2022-08-17T18:34:46.703Z,100843.97
2022-08-17T18:37:49.422Z,100846.34
2022-08-17T18:40:45.796Z,100843.16
2022-08-17T18:43:28.230Z,100842.97
2022-08-17T18:46:29.982Z,100846.78
2022-08-17T18:49:07.787Z,100841.91
2022-08-17T18:51:43.023Z,100845.06
2022-08-17T18:54:26.949Z,100848.22
2022-08-17T18:57:00.525Z,100854.56
2022-08-17T18:59:45.006Z,100854.31
2022-08-17T19:05:42.915Z,100857.88
2022-08-17T19:08:36.004Z,100860.81
2022-08-17T19:11:13.648Z,100866.31
2022-08-17T19:13:54.810Z,100861.69
2022-08-17T19:16:45.749Z,100876.44
2022-08-17T19:19:23.594Z,100869.69
2022-08-17T19:21:59.515Z,100877.91
2022-08-17T19:24:33.281Z,100882.31
2022-08-17T19:27:15.656Z,100878.72
2022-08-17T19:29:56.388Z,100878.97
2022-08-17T19:32:31.943Z,100881.13
2022-08-17T19:35:03.416Z,100870.19
2022-08-17T19:37:52.747Z,100868.50
2022-08-17T19:40:52.387Z,100863.03
2022-08-17T19:44:14.498Z,100869.56
2022-08-17T19:47:43.164Z,100869.13
2022-08-17T19:50:19.033Z,100871.47
2022-08-17T19:53:02.208Z,100867.22
2022-08-17T19:55:47.889Z,100872.72
2022-08-17T19:58:41.922Z,100877.56
2022-08-17T20:01:22.743Z,100870.19
2022-08-17T20:04:04.746Z,100865.75
2022-08-17T20:06:40.778Z,100865.34
2022-08-17T20:09:35.438Z,100876.72
2022-08-17T20:12:11.816Z,100879.47
2022-08-17T20:14:53.488Z,100875.66
2022-08-17T20:17:31.969Z,100871.47
2022-08-17T20:20:21.996Z,100861.75
2022-08-17T20:23:01.638Z,100870.81
2022-08-17T20:26:00.178Z,100863.44
2022-08-17T20:28:37.408Z,100858.78
2022-08-17T20:31:47.286Z,100870.59
2022-08-17T20:34:37.850Z,100865.53
2022-08-17T20:37:11.201Z,100868.91
2022-08-17T20:39:45.351Z,100863.84
2022-08-17T20:45:54.226Z,100862.13
2022-08-17T20:48:38.493Z,100866.09
2022-08-17T20:51:28.259Z,100859.78
2022-08-17T20:54:47.245Z,100858.50
2022-08-17T20:57:49.009Z,100865.47
2022-08-17T21:00:45.565Z,100860.81
2022-08-17T21:06:00.433Z,100856.16
2022-08-17T21:08:35.086Z,100847.72
2022-08-17T21:12:03.710Z,100855.69
2022-08-17T21:15:02.996Z,100852.72
2022-08-17T21:17:51.808Z,100851.03
2022-08-17T21:20:39.847Z,100848.53
2022-08-17T21:23:43.054Z,100848.06
2022-08-17T21:26:33.560Z,100851.44
2022-08-17T21:29:31.858Z,100867.44
2022-08-17T21:32:24.568Z,100875.03
2022-08-17T21:35:29.377Z,100894.41
2022-08-17T21:38:06.079Z,100896.69
2022-08-17T21:40:36.662Z,100901.84
2022-08-17T21:43:24.517Z,100911.47
2022-08-17T21:46:03.036Z,100915.22
2022-08-17T21:48:43.146Z,100914.44
2022-08-17T21:51:23.171Z,100923.91
2022-08-17T21:54:30.458Z,100917.78
2022-08-17T21:57:17.871Z,100916.94
2022-08-17T21:59:53.097Z,100904.56
2022-08-17T22:02:26.647Z,100899.09
2022-08-17T22:05:02.598Z,100892.75
2022-08-17T22:07:44.392Z,100890.00
2022-08-17T22:13:17.496Z,100891.03
2022-08-17T22:15:54.615Z,100893.28
2022-08-17T22:18:30.218Z,100891.06
2022-08-17T22:21:05.952Z,100895.88
2022-08-17T22:24:06.418Z,100889.75
2022-08-17T22:27:05.022Z,100883.78
2022-08-17T22:30:02.187Z,100891.28
2022-08-17T22:32:39.557Z,100896.56
2022-08-17T22:35:35.437Z,100888.81
2022-08-17T22:38:35.109Z,100879.50
2022-08-17T22:41:41.965Z,100890.84
2022-08-17T22:44:26.215Z,100881.25
2022-08-17T22:47:11.167Z,100881.41
2022-08-17T22:50:05.631Z,100889.28
2022-08-17T22:53:01.990Z,100876.47
2022-08-17T22:55:52.115Z,100878.44
2022-08-17T22:58:43.652Z,100882.16
2022-08-17T23:01:32.821Z,100886.44
2022-08-17T23:05:35.150Z,100887.63
2022-08-17T23:08:06.582Z,100875.13
2022-08-17T23:10:38.209Z,100877.59
2022-08-17T23:13:09.634Z,100877.28
2022-08-17T23:15:41.540Z,100878.72
2022-08-17T23:18:10.641Z,100883.81
2022-08-17T23:20:46.496Z,100887.44
2022-08-17T23:23:18.008Z,100891.69
2022-08-17T23:25:52.798Z,100898.97
2022-08-17T23:28:22.083Z,100904.13
2022-08-17T23:30:53.270Z,100913.44
2022-08-17T23:33:30.058Z,100921.16
2022-08-17T23:36:00.798Z,100933.47
2022-08-17T23:38:32.025Z,100940.00
2022-08-17T23:41:05.137Z,100939.75
2022-08-17T23:43:36.476Z,100946.41
2022-08-17T23:46:07.487Z,100951.38
2022-08-17T23:48:38.167Z,100943.84
2022-08-17T23:51:15.878Z,100934.44
2022-08-17T23:53:54.499Z,100937.97
2022-08-17T23:56:26.169Z,100941.47
2022-08-17T23:58:58.280Z,100933.38
